Time;durP1;ratioP1;P1;durP2;ratioP2;P2;SDS_P1;SDS_P2;PMS_P1;PMS_P2;Temp;Humidity;BMP_temperature;BMP_pressure;BME280_temperature;BME280_humidity;BME280_pressure;Samples;Min_cycle;Max_cycle;Signal;HPM_P1;HPM_P2
2022/05/08 00:01:35;;;;;;;48.70;33.60;;;;;;;13.40;55.06;99482.48;105293;1285;97920;-69
2022/05/08 00:04:05;;;;;;;48.10;32.30;;;;;;;13.35;55.34;99484.08;105529;1283;108488;-69
2022/05/08 00:06:33;;;;;;;49.30;32.40;;;;;;;13.35;55.48;99484.30;105655;1283;98005;-70
2022/05/08 00:09:01;;;;;;;50.50;33.80;;;;;;;13.36;55.55;99482.73;105257;1283;97917;-70
2022/05/08 00:11:29;;;;;;;52.90;34.10;;;;;;;13.37;55.77;99480.73;105640;1282;111836;-68
2022/05/08 00:13:58;;;;;;;46.90;33.10;;;;;;;13.39;55.74;99478.79;105565;1283;96507;-68
2022/05/08 00:16:26;;;;;;;48.90;32.50;;;;;;;13.42;55.90;99481.13;105502;1283;108241;-68
2022/05/08 00:18:54;;;;;;;46.20;31.80;;;;;;;13.44;55.84;99474.95;105371;1284;97977;-67
2022/05/08 00:21:24;;;;;;;48.70;32.90;;;;;;;13.45;56.00;99474.46;105414;1284;97925;-68
2022/05/08 00:23:52;;;;;;;47.90;32.50;;;;;;;13.45;56.07;99474.09;105485;1283;111586;-68
2022/05/08 00:26:30;;;;;;;52.40;32.50;;;;;;;13.45;56.17;99471.05;105454;1283;97893;-69
2022/05/08 00:28:58;;;;;;;50.50;32.10;;;;;;;13.45;56.18;99467.89;105463;1282;107673;-69
2022/05/08 00:31:25;;;;;;;46.30;31.10;;;;;;;13.44;56.09;99468.36;105497;1283;97765;-70
2022/05/08 00:33:53;;;;;;;46.60;30.70;;;;;;;13.40;56.23;99466.09;105476;1284;97977;-69
2022/05/08 00:36:24;;;;;;;45.70;30.90;;;;;;;13.39;56.38;99464.95;105508;1283;111808;-69
2022/05/08 00:38:55;;;;;;;44.60;30.70;;;;;;;13.39;56.46;99459.20;105589;1283;97939;-68
2022/05/08 00:41:25;;;;;;;47.10;31.40;;;;;;;13.41;56.51;99457.13;105585;1284;108347;-68
2022/05/08 00:43:53;;;;;;;52.80;32.10;;;;;;;13.42;56.57;99458.70;105551;1284;97958;-70
2022/05/08 00:46:21;;;;;;;53.30;32.60;;;;;;;13.41;56.64;99452.90;105555;1284;96606;-69
2022/05/08 00:48:51;;;;;;;47.60;32.20;;;;;;;13.37;56.71;99452.23;105561;1284;112014;-69
2022/05/08 00:51:23;;;;;;;46.60;30.80;;;;;;;13.37;56.76;99451.91;105546;1283;97930;-67
2022/05/08 00:53:55;;;;;;;40.40;28.60;;;;;;;13.38;56.85;99453.19;105396;1284;107626;-69
2022/05/08 00:56:23;;;;;;;46.90;29.90;;;;;;;13.40;56.84;99451.45;105450;1283;97883;-69
2022/05/08 00:58:52;;;;;;;41.30;28.50;;;;;;;13.42;56.88;99452.27;105436;1284;97912;-71
2022/05/08 01:01:25;;;;;;;46.40;29.60;;;;;;;13.41;56.93;99449.14;105469;1284;112394;-70
2022/05/08 01:03:54;;;;;;;42.70;30.10;;;;;;;13.39;57.02;99447.99;105484;1283;99052;-69
2022/05/08 01:06:22;;;;;;;43.10;28.00;;;;;;;13.38;57.17;99450.51;105593;1283;108889;-69
2022/05/08 01:08:54;;;;;;;39.90;27.60;;;;;;;13.39;57.16;99450.85;105394;1283;97874;-70
2022/05/08 01:11:22;;;;;;;38.90;25.80;;;;;;;13.39;57.21;99453.67;105263;1282;98064;-70
2022/05/08 01:13:50;;;;;;;40.70;25.60;;;;;;;13.39;57.25;99451.00;105521;1283;111138;-69
2022/05/08 01:16:23;;;;;;;44.10;29.40;;;;;;;13.38;57.19;99450.42;105640;1283;97935;-70
2022/05/08 01:18:51;;;;;;;40.10;26.20;;;;;;;13.33;57.23;99452.19;105552;1283;107804;-70
2022/05/08 01:21:32;;;;;;;41.10;26.60;;;;;;;13.28;57.27;99454.00;105565;1283;95292;-71
2022/05/08 01:24:00;;;;;;;42.20;27.40;;;;;;;13.27;57.41;99455.48;105299;1283;97980;-70
2022/05/08 01:26:28;;;;;;;38.50;24.70;;;;;;;13.28;57.59;99454.73;105491;1283;111466;-69
2022/05/08 01:28:57;;;;;;;36.70;24.50;;;;;;;13.28;57.59;99454.86;105490;1284;97766;-69
2022/05/08 01:31:25;;;;;;;37.90;24.10;;;;;;;13.28;57.68;99454.41;105522;1283;108135;-70
2022/05/08 01:33:55;;;;;;;35.90;24.30;;;;;;;13.28;57.67;99452.81;105580;1283;97765;-70
2022/05/08 01:36:23;;;;;;;46.00;28.40;;;;;;;13.26;57.80;99454.52;105333;1284;96496;-70
2022/05/08 01:38:51;;;;;;;45.30;29.00;;;;;;;13.24;57.72;99454.70;105578;1282;111186;-68
2022/05/08 01:41:19;;;;;;;44.00;28.90;;;;;;;13.18;57.67;99452.23;105500;1284;97869;-71
2022/05/08 01:43:47;;;;;;;43.70;27.90;;;;;;;13.11;57.56;99450.73;105579;1283;106328;-69
2022/05/08 01:46:15;;;;;;;44.70;26.80;;;;;;;12.94;57.61;99451.80;105452;1283;97904;-69
2022/05/08 01:48:44;;;;;;;45.00;30.00;;;;;;;12.78;57.54;99451.04;105526;1284;96011;-70
2022/05/08 01:51:12;;;;;;;41.20;28.00;;;;;;;12.62;57.65;99449.95;105431;1284;111409;-71
2022/05/08 01:53:41;;;;;;;42.90;28.60;;;;;;;12.47;57.63;99448.17;105545;1284;97866;-70
2022/05/08 01:56:09;;;;;;;42.70;28.20;;;;;;;12.38;57.86;99449.73;105565;1283;107504;-71
2022/05/08 01:58:37;;;;;;;43.00;27.70;;;;;;;12.35;57.99;99452.46;105666;1283;98591;-71
2022/05/08 02:01:11;;;;;;;40.60;27.70;;;;;;;12.33;58.17;99450.61;105453;1283;97881;-69
2022/05/08 02:03:39;;;;;;;44.50;28.30;;;;;;;12.34;58.35;99452.34;105209;1286;111615;-70
2022/05/08 02:06:07;;;;;;;42.00;28.80;;;;;;;12.34;58.33;99454.85;105666;1283;98008;-69
2022/05/08 02:08:35;;;;;;;40.40;27.50;;;;;;;12.35;58.52;99454.77;105661;1283;107646;-69
2022/05/08 02:11:03;;;;;;;42.10;27.60;;;;;;;12.38;58.74;99456.91;105654;1283;98034;-70
2022/05/08 02:13:32;;;;;;;39.10;27.90;;;;;;;12.40;58.68;99456.17;105502;1283;96456;-69
2022/05/08 02:16:00;;;;;;;39.00;26.90;;;;;;;12.42;58.62;99455.33;105423;1286;111414;-69
2022/05/08 02:18:28;;;;;;;40.70;26.00;;;;;;;12.40;58.82;99457.44;105476;1284;98104;-69
2022/05/08 02:20:55;;;;;;;41.70;26.40;;;;;;;12.34;58.63;99457.36;105389;1284;106325;-69
2022/05/08 02:23:23;;;;;;;40.50;26.50;;;;;;;12.27;58.64;99461.23;105410;1284;97969;-68
2022/05/08 02:25:53;;;;;;;40.10;26.70;;;;;;;12.22;58.81;99460.01;105499;1284;97870;-69
2022/05/08 02:28:21;;;;;;;38.30;25.60;;;;;;;12.20;59.12;99465.12;105550;1284;112124;-69
2022/05/08 02:30:49;;;;;;;41.60;27.20;;;;;;;12.21;58.96;99464.30;105523;1283;95251;-69
2022/05/08 02:33:17;;;;;;;44.50;29.00;;;;;;;12.22;59.05;99464.42;105444;1282;107808;-69
2022/05/08 02:35:45;;;;;;;41.00;26.50;;;;;;;12.22;59.19;99463.52;105394;1283;95213;-70
2022/05/08 02:38:13;;;;;;;40.70;26.90;;;;;;;12.23;59.22;99466.00;105460;1283;97901;-71
2022/05/08 02:40:41;;;;;;;38.80;26.20;;;;;;;12.25;59.53;99462.83;105623;1283;111548;-70
2022/05/08 02:43:08;;;;;;;43.00;27.70;;;;;;;12.27;59.57;99472.77;105462;1283;97915;-69
2022/05/08 02:45:36;;;;;;;38.70;25.80;;;;;;;12.30;59.60;99469.73;105533;1283;107728;-70
2022/05/08 02:48:04;;;;;;;43.90;26.70;;;;;;;12.33;59.62;99469.33;105398;1283;97994;-69
2022/05/08 02:50:32;;;;;;;37.80;25.30;;;;;;;12.37;59.74;99472.08;105541;1283;97879;-69
2022/05/08 02:53:00;;;;;;;38.70;25.90;;;;;;;12.40;59.73;99465.45;105447;1284;111402;-70
2022/05/08 02:58:33;;;;;;;39.50;25.20;;;;;;;12.48;60.00;99473.39;105625;1283;107781;-69
2022/05/08 03:01:07;;;;;;;38.10;24.00;;;;;;;12.52;60.18;99475.74;105675;1283;97919;-69
2022/05/08 03:03:35;;;;;;;37.10;25.60;;;;;;;12.56;60.18;99473.16;105732;1282;98001;-71
2022/05/08 03:06:06;;;;;;;37.50;24.40;;;;;;;12.58;60.04;99476.58;105694;1282;111074;-68
2022/05/08 03:08:36;;;;;;;36.60;24.10;;;;;;;12.60;60.28;99477.10;105691;1282;95188;-70
2022/05/08 03:13:53;;;;;;;40.80;24.70;;;;;;;12.63;60.09;99476.33;105640;1283;95301;-70
2022/05/08 03:16:27;;;;;;;36.40;24.50;;;;;;;12.60;60.04;99475.16;105673;1283;97867;-68
2022/05/08 03:18:57;;;;;;;42.40;25.40;;;;;;;12.59;60.23;99475.27;105635;1283;111039;-70
2022/05/08 03:21:25;;;;;;;34.40;23.90;;;;;;;12.58;60.22;99474.05;105670;1283;97904;-71
2022/05/08 03:23:53;;;;;;;38.80;24.30;;;;;;;12.58;60.36;99470.88;105644;1283;107482;-70
2022/05/08 03:26:21;;;;;;;35.80;25.50;;;;;;;12.58;60.24;99473.40;105627;1283;98039;-70
2022/05/08 03:28:52;;;;;;;37.70;23.90;;;;;;;12.57;60.32;99474.52;105646;1283;98349;-70
2022/05/08 03:31:21;;;;;;;38.30;24.50;;;;;;;12.58;60.41;99474.61;105368;1284;111454;-69
2022/05/08 03:33:52;;;;;;;38.10;24.20;;;;;;;12.59;60.34;99477.05;105556;1282;95735;-69
2022/05/08 03:36:20;;;;;;;38.30;24.60;;;;;;;12.55;60.24;99479.47;105444;1282;108003;-68
2022/05/08 03:38:48;;;;;;;38.10;23.70;;;;;;;12.48;60.46;99477.45;105544;1283;97493;-68
2022/05/08 03:41:15;;;;;;;37.60;24.40;;;;;;;12.50;60.67;99482.65;105537;1283;97889;-69
2022/05/08 03:43:48;;;;;;;41.30;23.60;;;;;;;12.55;60.68;99484.66;105536;1283;203137;-67
2022/05/08 03:46:16;;;;;;;36.50;23.90;;;;;;;12.56;60.46;99490.23;105714;1283;97971;-70
2022/05/08 03:48:47;;;;;;;36.60;23.80;;;;;;;12.55;60.65;99492.79;105494;1283;107763;-69
2022/05/08 03:51:15;;;;;;;34.20;22.20;;;;;;;12.57;60.77;99491.55;105429;1284;98576;-72
2022/05/08 03:53:43;;;;;;;36.10;23.00;;;;;;;12.62;60.96;99495.61;105405;1284;97852;-69
2022/05/08 03:56:12;;;;;;;37.10;23.30;;;;;;;12.66;61.03;99497.66;105451;1284;112009;-69
2022/05/08 03:58:43;;;;;;;34.60;23.10;;;;;;;12.68;60.87;99496.27;105568;1283;97900;-70
2022/05/08 04:01:11;;;;;;;32.00;21.70;;;;;;;12.66;60.69;99500.16;105344;1284;107636;-70
2022/05/08 04:03:39;;;;;;;36.80;22.60;;;;;;;12.63;61.08;99502.36;105564;1282;98710;-70
2022/05/08 04:06:07;;;;;;;34.50;23.30;;;;;;;12.66;61.13;99503.89;105414;1284;97023;-70
2022/05/08 04:08:35;;;;;;;36.60;22.70;;;;;;;12.73;61.17;99507.15;105515;1283;112259;-69
2022/05/08 04:11:03;;;;;;;33.60;21.60;;;;;;;12.76;61.25;99509.77;105651;1283;97919;-69
2022/05/08 04:13:34;;;;;;;35.60;22.20;;;;;;;12.75;60.95;99512.52;105565;1283;108354;-69
2022/05/08 04:16:17;;;;;;;36.10;22.70;;;;;;;12.71;61.14;99515.48;105500;1282;96338;-69
2022/05/08 04:18:48;;;;;;;32.70;21.00;;;;;;;12.73;61.40;99519.78;105381;1284;97903;-70
2022/05/08 04:21:16;;;;;;;32.10;22.70;;;;;;;12.77;61.38;99518.05;105480;1282;112007;-71
2022/05/08 04:26:37;;;;;;;37.20;22.60;;;;;;;12.89;61.60;99521.25;105551;1284;108877;-69
2022/05/08 04:29:05;;;;;;;32.60;21.20;;;;;;;12.95;61.63;99519.02;105574;1284;97932;-69
2022/05/08 04:31:33;;;;;;;33.50;21.80;;;;;;;13.03;61.73;99523.08;105542;1284;96520;-69
2022/05/08 04:34:04;;;;;;;34.60;22.80;;;;;;;13.10;61.67;99527.12;105557;1284;111384;-70
2022/05/08 04:36:32;;;;;;;37.00;22.70;;;;;;;13.17;61.62;99525.77;105593;1284;95215;-70
2022/05/08 04:39:02;;;;;;;31.60;21.50;;;;;;;13.22;61.65;99528.58;105585;1284;108433;-67
2022/05/08 04:41:33;;;;;;;32.60;20.00;;;;;;;13.28;61.63;99527.06;105576;1284;98007;-69
2022/05/08 04:44:01;;;;;;;34.90;23.30;;;;;;;13.34;61.67;99531.88;105644;1283;97853;-70
2022/05/08 04:46:32;;;;;;;33.50;21.50;;;;;;;13.45;61.74;99522.93;105678;1283;110816;-68
2022/05/08 04:49:00;;;;;;;32.10;22.50;;;;;;;13.58;61.84;99528.72;105694;1282;98043;-70
2022/05/08 04:51:33;;;;;;;34.00;21.80;;;;;;;13.70;61.88;99531.83;105696;1283;108439;-69
2022/05/08 04:54:03;;;;;;;32.30;20.60;;;;;;;13.82;61.95;99536.08;105706;1283;96458;-71
2022/05/08 04:56:31;;;;;;;33.60;20.90;;;;;;;13.95;61.99;99538.50;105689;1283;97901;-69
2022/05/08 04:58:59;;;;;;;30.20;19.60;;;;;;;14.06;62.00;99538.64;105685;1283;110366;-69
2022/05/08 05:01:27;;;;;;;30.60;19.90;;;;;;;14.17;61.94;99538.20;105700;1283;97993;-70
2022/05/08 05:03:56;;;;;;;29.90;19.50;;;;;;;14.25;61.97;99540.05;105709;1283;107795;-69
2022/05/08 05:06:25;;;;;;;28.60;18.10;;;;;;;14.33;62.03;99543.62;105688;1283;97999;-68
2022/05/08 05:08:53;;;;;;;32.90;20.00;;;;;;;14.43;62.01;99540.52;105650;1283;97761;-69
2022/05/08 05:11:26;;;;;;;29.50;18.70;;;;;;;14.53;62.00;99542.42;105689;1283;112008;-68
2022/05/08 05:13:54;;;;;;;28.30;19.00;;;;;;;14.63;62.04;99540.74;105581;1284;97921;-67
2022/05/08 05:16:25;;;;;;;32.20;19.10;;;;;;;14.71;62.09;99543.78;105645;1283;107927;-69
2022/05/08 05:18:56;;;;;;;30.80;19.10;;;;;;;14.81;62.10;99544.44;105719;1283;98011;-68
2022/05/08 05:21:26;;;;;;;29.30;18.20;;;;;;;14.91;61.99;99547.41;105603;1284;96483;-69
2022/05/08 05:23:53;;;;;;;29.60;18.30;;;;;;;14.99;61.95;99547.95;105570;1284;111825;-70
2022/05/08 05:26:21;;;;;;;29.70;17.90;;;;;;;15.09;62.01;99547.52;105505;1284;96296;-70
2022/05/08 05:28:51;;;;;;;28.50;17.00;;;;;;;15.19;61.89;99550.61;105378;1284;107725;-70
2022/05/08 05:31:23;;;;;;;31.70;19.60;;;;;;;15.28;61.82;99549.97;105419;1283;96999;-69
2022/05/08 05:33:51;;;;;;;30.80;19.10;;;;;;;15.39;61.68;99554.61;105598;1284;97904;-70
2022/05/08 05:36:21;;;;;;;32.70;19.60;;;;;;;15.48;61.62;99554.39;105549;1284;112249;-66
2022/05/08 05:38:49;;;;;;;30.40;18.80;;;;;;;15.57;61.63;99553.14;105437;1284;97888;-70
2022/05/08 05:41:18;;;;;;;28.40;17.30;;;;;;;15.66;61.55;99552.91;106002;1283;107478;-69
2022/05/08 05:43:46;;;;;;;32.80;18.10;;;;;;;15.75;61.48;99556.55;105445;1283;97323;-70
2022/05/08 05:49:06;;;;;;;30.70;18.60;;;;;;;15.93;61.36;99558.27;105568;1283;111334;-69
2022/05/08 05:51:34;;;;;;;26.30;16.80;;;;;;;16.00;61.29;99558.59;105419;1284;98006;-69
2022/05/08 05:54:02;;;;;;;33.90;17.80;;;;;;;16.07;61.22;99558.65;105626;1283;106863;-70
2022/05/08 05:56:33;;;;;;;27.30;17.10;;;;;;;16.16;61.19;99560.73;105269;1284;97913;-68
2022/05/08 05:59:07;;;;;;;29.00;17.10;;;;;;;16.22;61.03;99562.20;105549;1284;97902;-68
2022/05/08 06:01:55;;;;;;;25.70;17.60;;;;;;;16.28;61.11;99560.10;105315;1284;111604;-69
2022/05/08 06:04:23;;;;;;;27.10;16.80;;;;;;;16.36;61.27;99562.02;105630;1283;97951;-69
2022/05/08 06:06:51;;;;;;;30.40;17.80;;;;;;;16.49;61.24;99564.65;105444;1283;107793;-68
2022/05/08 06:09:19;;;;;;;27.90;18.30;;;;;;;16.60;61.10;99563.79;105385;1284;97893;-68
2022/05/08 06:11:47;;;;;;;29.70;18.00;;;;;;;16.71;61.07;99567.52;105490;1283;97879;-70
2022/05/08 06:14:15;;;;;;;29.00;17.20;;;;;;;16.80;60.96;99571.71;105498;1283;111171;-68
2022/05/08 06:16:43;;;;;;;25.80;16.00;;;;;;;16.85;60.93;99575.20;105587;1283;98108;-68
2022/05/08 06:19:15;;;;;;;26.30;16.90;;;;;;;16.86;60.71;99575.30;105396;1284;107520;-70
2022/05/08 06:21:47;;;;;;;26.60;16.50;;;;;;;16.89;60.81;99575.17;105381;1285;98004;-70
2022/05/08 06:24:17;;;;;;;24.80;14.40;;;;;;;16.95;60.59;99574.46;105566;1284;97794;-69
2022/05/08 06:26:46;;;;;;;24.90;13.70;;;;;;;17.04;60.47;99572.48;105610;1283;111462;-72
2022/05/08 06:29:14;;;;;;;27.60;14.80;;;;;;;17.14;60.46;99572.98;105648;1283;98031;-69
2022/05/08 06:31:42;;;;;;;26.30;15.40;;;;;;;17.23;60.37;99569.94;105638;1283;106768;-70
2022/05/08 06:34:20;;;;;;;30.80;16.70;;;;;;;17.36;60.20;99566.86;105275;1284;97898;-70
2022/05/08 06:36:48;;;;;;;29.40;16.00;;;;;;;17.45;60.29;99566.94;105621;1283;97988;-71
2022/05/08 06:39:15;;;;;;;25.90;15.90;;;;;;;17.53;60.29;99571.73;105506;1283;111539;-70
2022/05/08 06:41:47;;;;;;;27.10;15.20;;;;;;;17.63;60.42;99570.42;105394;1284;97726;-71
2022/05/08 06:44:15;;;;;;;26.20;15.40;;;;;;;17.74;60.33;99572.05;105129;1284;107876;-71
2022/05/08 06:46:43;;;;;;;26.20;16.10;;;;;;;17.85;60.28;99569.91;105642;1283;97924;-69
2022/05/08 06:49:11;;;;;;;24.90;15.00;;;;;;;17.92;59.69;99568.60;105307;1283;98012;-70
2022/05/08 06:51:39;;;;;;;27.20;16.40;;;;;;;18.02;60.07;99568.05;105647;1283;110068;-73
2022/05/08 06:54:06;;;;;;;25.70;15.90;;;;;;;18.18;59.88;99569.56;105544;1284;97931;-73
2022/05/08 06:56:36;;;;;;;26.50;15.50;;;;;;;18.33;60.02;99571.82;105570;1283;107789;-73
2022/05/08 07:01:56;;;;;;;27.80;15.20;;;;;;;18.79;59.47;99565.79;105613;1283;97980;-72
2022/05/08 07:04:24;;;;;;;26.90;15.80;;;;;;;19.34;59.03;99564.27;105642;1283;111391;-73
2022/05/08 07:06:52;;;;;;;30.10;15.50;;;;;;;20.25;58.54;99559.96;105552;1283;97978;-72
2022/05/08 07:09:24;;;;;;;25.50;13.60;;;;;;;21.31;58.12;99560.56;105575;1283;107008;-74
2022/05/08 07:11:52;;;;;;;22.40;12.80;;;;;;;22.92;57.45;99556.91;105534;1283;98017;-71
2022/05/08 07:14:26;;;;;;;22.50;11.80;;;;;;;24.38;57.02;99554.96;105592;1283;95820;-71
2022/05/08 07:16:54;;;;;;;21.10;12.60;;;;;;;25.48;57.14;99559.14;105579;1283;111338;-72
2022/05/08 07:19:22;;;;;;;23.10;12.40;;;;;;;26.51;56.28;99557.33;105528;1283;97885;-69
2022/05/08 07:21:50;;;;;;;19.40;11.10;;;;;;;27.67;56.28;99562.11;105547;1282;107956;-71
2022/05/08 07:24:22;;;;;;;;;;;;;;;28.49;56.30;99558.69;105128;1284;97896;-72
2022/05/08 07:26:50;;;;;;;21.30;11.80;;;;;;;28.76;56.17;99556.93;105548;1283;98019;-72
2022/05/08 07:29:18;;;;;;;20.50;11.00;;;;;;;28.52;56.37;99552.98;105444;1283;111271;-69
2022/05/08 07:31:46;;;;;;;22.80;11.10;;;;;;;28.64;55.75;99555.84;105522;1283;98543;-71
2022/05/08 07:37:03;;;;;;;21.50;10.70;;;;;;;29.04;54.68;99559.20;105518;1283;97967;-72
2022/05/08 07:39:31;;;;;;;19.50;10.50;;;;;;;29.53;54.49;99558.05;105466;1283;98027;-71
2022/05/08 07:41:59;;;;;;;17.60;9.30;;;;;;;30.00;53.59;99561.44;105506;1283;111335;-72
2022/05/08 07:44:27;;;;;;;19.50;9.60;;;;;;;30.59;53.56;99567.69;105449;1282;99045;-73
2022/05/08 07:46:55;;;;;;;19.60;10.90;;;;;;;30.94;52.91;99566.76;105416;1283;107803;-72
2022/05/08 07:49:22;;;;;;;18.10;9.20;;;;;;;31.12;52.21;99566.95;105362;1283;97995;-69
2022/05/08 07:51:50;;;;;;;18.70;9.20;;;;;;;31.71;51.88;99568.92;105432;1283;95337;-70
2022/05/08 07:54:19;;;;;;;20.40;9.60;;;;;;;32.18;51.51;99568.06;105480;1283;111709;-71
2022/05/08 07:56:47;;;;;;;18.90;9.60;;;;;;;32.04;51.66;99569.08;105577;1283;97963;-70
2022/05/08 07:59:18;;;;;;;15.80;8.70;;;;;;;31.22;51.50;99572.98;105435;1283;107729;-70
2022/05/08 08:01:46;;;;;;;18.40;9.60;;;;;;;30.70;51.08;99573.42;105498;1283;97966;-71
2022/05/08 08:04:20;;;;;;;21.50;9.80;;;;;;;30.27;50.79;99570.86;105522;1282;97877;-72
2022/05/08 08:06:48;;;;;;;17.40;9.00;;;;;;;29.96;50.48;99568.66;105555;1283;113168;-71
2022/05/08 08:09:16;;;;;;;18.30;9.60;;;;;;;29.67;50.00;99570.61;105517;1284;96518;-70
2022/05/08 08:11:44;;;;;;;21.60;10.10;;;;;;;29.35;49.46;99567.04;105367;1284;107804;-70
2022/05/08 08:14:15;;;;;;;16.30;8.80;;;;;;;28.98;49.10;99566.58;105550;1283;98772;-69
2022/05/08 08:17:08;;;;;;;23.00;9.00;;;;;;;28.64;48.78;99562.58;105487;1283;97897;-69
2022/05/08 08:19:35;;;;;;;;;;;;;;;28.34;48.79;99569.20;105480;1283;113191;-70
2022/05/08 08:22:04;;;;;;;19.40;9.20;;;;;;;27.96;48.14;99571.67;105230;1284;98270;-70
2022/05/08 08:24:34;;;;;;;18.10;9.30;;;;;;;27.50;47.96;99570.70;105450;1283;107712;-69
2022/05/08 08:27:07;;;;;;;19.00;9.60;;;;;;;27.15;47.80;99577.55;105300;1283;98513;-70
2022/05/08 08:29:35;;;;;;;19.40;9.10;;;;;;;26.95;47.42;99578.02;105476;1283;97993;-69
2022/05/08 08:32:03;;;;;;;17.30;8.60;;;;;;;26.74;47.14;99575.52;105524;1283;112756;-69
2022/05/08 08:34:33;;;;;;;21.10;9.50;;;;;;;26.55;46.89;99575.41;105461;1284;97968;-72
2022/05/08 08:37:03;;;;;;;21.50;9.20;;;;;;;26.44;46.80;99572.20;105136;1283;107778;-70
2022/05/08 08:39:31;;;;;;;19.10;9.10;;;;;;;26.44;46.67;99575.29;105395;1283;95251;-71
2022/05/08 08:42:25;;;;;;;20.00;9.60;;;;;;;26.52;46.31;99575.14;105448;1284;97887;-70
2022/05/08 08:48:10;;;;;;;17.70;8.60;;;;;;;26.48;45.91;99579.58;105464;1283;96204;-69
2022/05/08 08:50:38;;;;;;;21.20;8.60;;;;;;;26.27;45.67;99579.19;105376;1283;107777;-70
2022/05/08 08:53:07;;;;;;;16.50;8.50;;;;;;;26.08;45.56;99577.89;105374;1283;96295;-70
2022/05/08 08:55:37;;;;;;;18.90;9.10;;;;;;;25.97;45.52;99579.87;105262;1284;96168;-73
2022/05/08 08:58:05;;;;;;;19.00;9.40;;;;;;;25.94;45.34;99581.98;105236;1283;111487;-74
2022/05/08 09:00:33;;;;;;;16.20;7.80;;;;;;;26.16;45.00;99581.42;105204;1284;95456;-73
2022/05/08 09:03:01;;;;;;;14.40;7.20;;;;;;;26.78;44.78;99575.58;105090;1285;109600;-74
2022/05/08 09:05:34;;;;;;;15.40;6.90;;;;;;;27.49;44.47;99577.42;105347;1284;97967;-75
2022/05/08 09:08:02;;;;;;;14.60;6.50;;;;;;;28.27;44.12;99572.64;105464;1284;96605;-74
2022/05/08 09:10:36;;;;;;;15.80;7.00;;;;;;;29.16;44.20;99571.16;105318;1284;111024;-73
2022/05/08 09:13:07;;;;;;;15.00;6.80;;;;;;;29.97;44.11;99571.77;105407;1283;95955;-73
2022/05/08 09:15:38;;;;;;;14.70;6.70;;;;;;;30.56;43.87;99571.85;105277;1284;107917;-73
2022/05/08 09:18:11;;;;;;;12.20;5.80;;;;;;;30.99;43.72;99571.95;105511;1284;97898;-74
2022/05/08 09:20:46;;;;;;;14.20;6.60;;;;;;;31.56;43.55;99573.95;105520;1283;98565;-74
2022/05/08 09:23:19;;;;;;;15.00;6.60;;;;;;;32.18;43.35;99571.63;105503;1284;111071;-74
2022/05/08 09:26:02;;;;;;;14.10;6.70;;;;;;;32.58;42.94;99568.57;105201;1284;98493;-73
2022/05/08 09:28:43;;;;;;;15.00;6.20;;;;;;;32.82;42.75;99569.08;105087;1284;108940;-72
2022/05/08 09:31:12;;;;;;;19.30;6.20;;;;;;;32.61;42.80;99575.12;105338;1284;97234;-71
2022/05/08 09:33:50;;;;;;;16.40;8.20;;;;;;;32.12;42.29;99580.31;105521;1284;97949;-73
2022/05/08 09:36:24;;;;;;;15.40;8.60;;;;;;;31.56;42.49;99577.09;105226;1284;111444;-72
2022/05/08 09:38:55;;;;;;;19.70;8.60;;;;;;;30.83;41.95;99574.88;105538;1283;97033;-70
2022/05/08 09:41:50;;;;;;;17.10;7.90;;;;;;;29.98;41.44;99574.45;105393;1284;106493;-72
2022/05/08 09:44:18;;;;;;;19.80;8.10;;;;;;;29.17;41.59;99571.38;105500;1283;97526;-71
2022/05/08 09:46:49;;;;;;;22.50;8.90;;;;;;;28.71;41.39;99570.59;105634;1284;96720;-72
2022/05/08 09:49:18;;;;;;;17.40;8.00;;;;;;;28.25;41.06;99572.03;105577;1284;111416;-71
2022/05/08 09:51:48;;;;;;;18.80;8.30;;;;;;;27.81;40.88;99572.41;105581;1283;98364;-71
2022/05/08 09:54:18;;;;;;;16.70;7.70;;;;;;;27.33;40.31;99568.96;105169;1285;107935;-71
2022/05/08 09:56:49;;;;;;;14.40;7.20;;;;;;;26.91;40.06;99568.37;105290;1284;98056;-72
2022/05/08 09:59:19;;;;;;;16.80;7.10;;;;;;;26.99;40.09;99567.42;105551;1284;97936;-70
2022/05/08 10:01:48;;;;;;;15.70;7.00;;;;;;;27.14;40.01;99565.64;105661;1284;110397;-70
2022/05/08 10:04:17;;;;;;;15.60;6.80;;;;;;;27.20;39.90;99562.73;105707;1284;97931;-69
2022/05/08 10:06:48;;;;;;;14.30;6.60;;;;;;;27.23;40.03;99558.71;105597;1283;107729;-70
2022/05/08 10:15:18;;;;;;;16.40;6.70;;;;;;;27.04;39.59;99549.33;105592;1284;111447;-71
2022/05/08 10:17:48;;;;;;;11.40;5.70;;;;;;;27.00;39.76;99553.52;105552;1284;95957;-71
2022/05/08 10:21:06;;;;;;;16.50;6.00;;;;;;;26.84;39.26;99552.89;105319;1284;108997;-71
2022/05/08 10:23:42;;;;;;;16.80;5.40;;;;;;;26.68;38.89;99550.91;105188;1284;97912;-70
2022/05/08 10:26:22;;;;;;;9.60;4.60;;;;;;;26.58;38.85;99552.16;105658;1283;97909;-71
2022/05/08 10:29:13;;;;;;;11.60;5.50;;;;;;;26.34;38.49;99549.02;105553;1282;111473;-70
2022/05/08 10:31:49;;;;;;;15.30;6.30;;;;;;;26.09;38.38;99550.60;105574;1284;98267;-72
2022/05/08 10:34:34;;;;;;;14.50;6.50;;;;;;;25.80;38.28;99551.39;105362;1284;107750;-69
2022/05/08 10:37:12;;;;;;;15.70;6.50;;;;;;;25.65;38.34;99545.29;105535;1283;97845;-71
2022/05/08 10:39:43;;;;;;;11.30;5.40;;;;;;;25.49;38.24;99542.00;105623;1284;97872;-71
2022/05/08 10:42:44;;;;;;;13.00;5.90;;;;;;;25.45;38.24;99532.29;105364;1284;111468;-71
2022/05/08 10:45:33;;;;;;;13.00;5.80;;;;;;;25.37;37.91;99534.59;105524;1283;96387;-70
2022/05/08 10:48:16;;;;;;;12.80;5.90;;;;;;;25.19;37.82;99539.58;105503;1283;107426;-70
2022/05/08 10:50:54;;;;;;;12.80;5.40;;;;;;;25.03;37.81;99538.47;105581;1283;98351;-71
2022/05/08 10:53:34;;;;;;;12.50;6.50;;;;;;;25.05;37.98;99535.73;105595;1284;97915;-70
2022/05/08 10:56:04;;;;;;;12.60;5.50;;;;;;;25.14;37.81;99530.52;105429;1284;111396;-69
2022/05/08 10:58:37;;;;;;;13.00;6.10;;;;;;;25.23;38.00;99529.02;105528;1281;95894;-70
2022/05/08 11:01:09;;;;;;;18.20;6.10;;;;;;;25.27;37.48;99520.89;107008;1281;108382;-70
2022/05/08 11:03:38;;;;;;;12.40;5.80;;;;;;;25.21;37.48;99521.39;106216;1281;98010;-69
2022/05/08 11:06:07;;;;;;;12.00;6.00;;;;;;;25.14;37.56;99522.07;105597;1281;97999;-70
2022/05/08 11:08:36;;;;;;;18.60;7.30;;;;;;;25.05;37.56;99518.98;105536;1281;111237;-69
2022/05/08 11:11:07;;;;;;;13.50;6.20;;;;;;;24.96;37.29;99518.98;105315;1283;96366;-69
2022/05/08 11:13:48;;;;;;;18.00;5.90;;;;;;;24.83;37.17;99513.39;105569;1281;107937;-70
2022/05/08 11:16:41;;;;;;;14.60;5.90;;;;;;;24.85;37.33;99509.13;107002;1281;97434;-70
2022/05/08 11:19:09;;;;;;;12.70;5.50;;;;;;;24.98;37.48;99506.24;105459;1283;96444;-67
2022/05/08 11:21:37;;;;;;;12.50;6.30;;;;;;;25.05;37.28;99503.70;105507;1283;111369;-69
2022/05/08 11:24:05;;;;;;;14.30;6.20;;;;;;;25.06;37.37;99506.48;105674;1283;98020;-68
2022/05/08 11:26:35;;;;;;;13.20;6.30;;;;;;;25.07;37.28;99501.00;105489;1281;108310;-68
2022/05/08 11:29:04;;;;;;;15.10;5.70;;;;;;;25.12;37.32;99499.04;105560;1281;98352;-70
2022/05/08 11:31:36;;;;;;;14.30;6.20;;;;;;;25.17;37.27;99495.76;105513;1281;97997;-70
2022/05/08 11:37:01;;;;;;;14.40;5.60;;;;;;;24.97;37.16;99493.70;105613;1283;97976;-67
2022/05/08 11:39:31;;;;;;;13.50;6.00;;;;;;;24.83;37.18;99495.42;105534;1283;108757;-67
2022/05/08 11:42:00;;;;;;;13.10;6.00;;;;;;;24.66;37.08;99495.32;105558;1283;95312;-68
2022/05/08 11:44:28;;;;;;;18.00;7.20;;;;;;;24.48;36.98;99494.33;105397;1283;98191;-70
2022/05/08 11:46:58;;;;;;;13.30;5.90;;;;;;;24.16;36.90;99496.42;105635;1283;111974;-68
2022/05/08 11:49:30;;;;;;;11.70;6.30;;;;;;;23.99;37.00;99498.53;105504;1283;96803;-69
2022/05/08 11:52:02;;;;;;;15.20;6.10;;;;;;;23.83;36.97;99494.59;105598;1283;107641;-69
2022/05/08 11:54:35;;;;;;;12.50;5.40;;;;;;;23.75;36.87;99491.66;105486;1283;97043;-69